createdAt,value
2023-03-24T00:00:26.176Z,0.06
2023-03-24T00:01:26.936Z,0.09
2023-03-24T00:02:27.591Z,0.09
2023-03-24T00:03:28.689Z,0.09
2023-03-24T00:04:29.014Z,0.09
2023-03-24T00:05:29.662Z,0.09
2023-03-24T00:05:38.364Z,0.09
2023-03-24T00:06:39.044Z,0.09
2023-03-24T00:07:39.971Z,0.09
2023-03-24T00:08:40.408Z,0.09
2023-03-24T00:09:41.157Z,0.06
2023-03-24T00:10:41.831Z,0.09
2023-03-24T00:11:42.520Z,0.09
2023-03-24T00:12:43.271Z,0.09
2023-03-24T00:13:44.002Z,0.09
2023-03-24T00:14:44.626Z,0.09
2023-03-24T00:15:45.429Z,0.09
2023-03-24T00:15:54.076Z,0.09
2023-03-24T00:16:54.740Z,0.09
2023-03-24T00:17:55.412Z,0.09
2023-03-24T00:18:56.079Z,0.09
2023-03-24T00:19:56.734Z,0.09
2023-03-24T00:20:57.377Z,0.09
2023-03-24T00:21:58.044Z,0.09
2023-03-24T00:22:58.947Z,0.09
2023-03-24T00:23:59.345Z,0.09
2023-03-24T00:25:00.044Z,0.09
2023-03-24T00:26:00.682Z,0.09
2023-03-24T00:26:09.367Z,0.09
2023-03-24T00:27:09.963Z,0.09
2023-03-24T00:28:10.617Z,0.09
2023-03-24T00:29:11.454Z,0.09
2023-03-24T00:30:12.011Z,0.09
2023-03-24T00:31:12.674Z,0.09
2023-03-24T00:32:12.650Z,0.09
2023-03-24T00:33:13.399Z,0.09
2023-03-24T00:34:14.065Z,0.09
2023-03-24T00:35:14.732Z,0.09
2023-03-24T00:36:15.489Z,0.09
2023-03-24T00:36:24.201Z,0.09
2023-03-24T00:37:24.918Z,0.09
2023-03-24T00:38:25.566Z,0.09
2023-03-24T00:39:26.281Z,0.09
2023-03-24T00:40:26.925Z,0.09
2023-03-24T00:41:27.299Z,0.09
2023-03-24T00:42:27.721Z,0.09
2023-03-24T00:43:28.304Z,0.09
2023-03-24T00:44:29.028Z,0.09
2023-03-24T00:45:29.685Z,0.09
2023-03-24T00:46:30.507Z,0.09
2023-03-24T00:46:39.593Z,0.09
2023-03-24T00:47:40.225Z,0.09
2023-03-24T00:48:40.889Z,0.09
2023-03-24T00:49:40.942Z,0.09
2023-03-24T00:50:41.570Z,0.09
2023-03-24T00:51:42.384Z,0.09
2023-03-24T00:52:42.501Z,0.09
2023-03-24T00:53:43.127Z,0.09
2023-03-24T00:54:43.839Z,0.09
2023-03-24T00:55:44.512Z,0.09
2023-03-24T00:56:45.073Z,0.09
2023-03-24T00:56:53.783Z,0.09
2023-03-24T00:57:54.351Z,0.09
2023-03-24T00:58:58.251Z,0.09
2023-03-24T00:59:55.216Z,0.09
2023-03-24T01:00:55.844Z,0.09
2023-03-24T01:01:56.508Z,0.09
2023-03-24T01:02:57.078Z,0.09
2023-03-24T01:03:57.624Z,0.09
2023-03-24T01:04:58.269Z,0.09
2023-03-24T01:05:58.911Z,0.09
2023-03-24T01:06:59.573Z,0.09
2023-03-24T01:08:00.222Z,0.09
2023-03-24T01:09:01.018Z,0.09
2023-03-24T01:09:09.654Z,0.09
2023-03-24T01:10:10.194Z,0.09
2023-03-24T01:11:10.881Z,0.09
2023-03-24T01:12:11.430Z,0.09
2023-03-24T01:13:12.066Z,0.09
2023-03-24T01:14:12.850Z,0.09
2023-03-24T01:15:13.425Z,0.09
2023-03-24T01:16:14.263Z,0.09
2023-03-24T01:17:14.797Z,0.09
2023-03-24T01:18:15.413Z,0.09
2023-03-24T01:19:16.114Z,0.09
2023-03-24T01:19:25.325Z,0.09
2023-03-24T01:20:25.939Z,0.09
2023-03-24T01:21:26.054Z,0.09
2023-03-24T01:22:26.716Z,0.09
2023-03-24T01:23:26.989Z,0.09
2023-03-24T01:24:27.031Z,0.09
2023-03-24T01:25:27.204Z,0.09
2023-03-24T01:26:27.833Z,0.09
2023-03-24T01:27:28.675Z,0.09
2023-03-24T01:28:28.798Z,0.09
2023-03-24T01:29:29.571Z,0.09
2023-03-24T01:30:29.549Z,0.09
2023-03-24T01:30:41.358Z,0.09
2023-03-24T01:31:41.407Z,0.09
2023-03-24T01:32:42.111Z,0.09
2023-03-24T01:33:42.120Z,0.09
2023-03-24T01:34:42.796Z,0.09
2023-03-24T01:35:43.525Z,0.09
2023-03-24T01:36:44.199Z,0.09
2023-03-24T01:37:44.841Z,0.09
2023-03-24T01:38:45.506Z,0.09
2023-03-24T01:39:46.057Z,0.09
2023-03-24T01:40:46.851Z,0.09
2023-03-24T01:41:47.270Z,0.09
2023-03-24T01:41:56.409Z,0.09
2023-03-24T01:42:57.115Z,0.09
2023-03-24T01:43:57.671Z,0.09
2023-03-24T01:44:58.327Z,0.09
2023-03-24T01:45:59.081Z,0.09
2023-03-24T01:46:59.656Z,0.09
2023-03-24T01:48:00.313Z,0.09
2023-03-24T01:49:00.855Z,0.09
2023-03-24T01:50:01.458Z,0.09
2023-03-24T01:51:02.069Z,0.09
2023-03-24T01:52:02.764Z,0.09
2023-03-24T01:52:11.898Z,0.09
2023-03-24T01:53:12.529Z,0.09
2023-03-24T01:54:13.203Z,0.09
2023-03-24T01:55:13.832Z,0.09
2023-03-24T01:56:14.436Z,0.09
2023-03-24T01:57:15.144Z,0.09
2023-03-24T01:58:15.868Z,0.09
2023-03-24T01:59:16.587Z,0.09
2023-03-24T02:00:17.210Z,0.09
2023-03-24T02:01:18.035Z,0.09
2023-03-24T02:02:18.735Z,0.09
2023-03-24T02:02:27.400Z,0.09
2023-03-24T02:03:27.989Z,0.09
2023-03-24T02:04:28.709Z,0.09
2023-03-24T02:05:29.324Z,0.09
2023-03-24T02:06:29.899Z,0.09
2023-03-24T02:07:30.577Z,0.09
2023-03-24T02:08:31.233Z,0.09
2023-03-24T02:09:31.821Z,0.09
2023-03-24T02:10:32.416Z,0.09
2023-03-24T02:11:33.186Z,0.09
2023-03-24T02:12:33.855Z,0.09
2023-03-24T02:13:34.513Z,0.09
2023-03-24T02:13:43.112Z,0.09
2023-03-24T02:14:43.836Z,0.09
2023-03-24T02:15:44.538Z,0.09
2023-03-24T02:16:45.245Z,0.09
2023-03-24T02:17:45.887Z,0.09
2023-03-24T02:18:46.537Z,0.09
2023-03-24T02:19:47.292Z,0.09
2023-03-24T02:20:47.994Z,0.09
2023-03-24T02:21:48.700Z,0.06
2023-03-24T02:22:49.385Z,0.09
2023-03-24T02:23:50.166Z,0.09
2023-03-24T02:24:50.930Z,0.09
2023-03-24T02:24:59.517Z,0.09
2023-03-24T02:26:00.256Z,0.09
2023-03-24T02:27:00.899Z,0.09
2023-03-24T02:28:01.561Z,0.09
2023-03-24T02:29:02.360Z,0.09
2023-03-24T02:30:03.037Z,0.09
2023-03-24T02:31:03.674Z,0.09
2023-03-24T02:32:04.298Z,0.09
2023-03-24T02:33:04.968Z,0.09
2023-03-24T02:34:05.590Z,0.09
2023-03-24T02:35:06.366Z,0.09
2023-03-24T02:36:07.298Z,0.09
2023-03-24T02:36:15.957Z,0.09
2023-03-24T02:37:16.542Z,0.09
2023-03-24T02:38:17.171Z,0.09
2023-03-24T02:39:17.879Z,0.09
2023-03-24T02:40:18.597Z,0.09
2023-03-24T02:41:19.268Z,0.09
2023-03-24T02:42:20.047Z,0.09
2023-03-24T02:43:20.963Z,0.09
2023-03-24T02:44:21.761Z,0.09
2023-03-24T02:45:22.450Z,0.09
2023-03-24T02:46:23.712Z,0.09
2023-03-24T02:47:23.526Z,0.09
2023-03-24T02:48:24.164Z,0.09
2023-03-24T02:48:32.770Z,0.09
2023-03-24T02:49:33.351Z,0.09
2023-03-24T02:50:33.923Z,0.09
2023-03-24T02:51:34.591Z,0.09
2023-03-24T02:52:35.388Z,0.09
2023-03-24T02:53:35.960Z,0.09
2023-03-24T02:54:36.705Z,0.09
2023-03-24T02:55:37.375Z,0.09
2023-03-24T02:56:38.038Z,0.13
2023-03-24T02:57:38.708Z,0.09
2023-03-24T02:58:39.334Z,0.09
2023-03-24T02:59:40.074Z,0.09
2023-03-24T02:59:48.670Z,0.09
2023-03-24T03:00:49.339Z,0.09
2023-03-24T03:01:49.976Z,0.09
2023-03-24T03:02:50.509Z,0.09
2023-03-24T03:03:51.081Z,0.09
2023-03-24T03:04:51.737Z,0.09
2023-03-24T03:05:52.441Z,0.09
2023-03-24T03:06:53.147Z,0.09
2023-03-24T03:07:53.799Z,0.09
2023-03-24T03:08:55.455Z,0.09
2023-03-24T03:09:55.272Z,0.09
2023-03-24T03:10:56.080Z,0.09
2023-03-24T03:11:04.720Z,0.09
2023-03-24T03:12:05.366Z,0.09
2023-03-24T03:13:06.030Z,0.09
2023-03-24T03:14:06.613Z,0.09
2023-03-24T03:15:07.217Z,0.09
2023-03-24T03:16:08.184Z,0.09
2023-03-24T03:17:08.749Z,0.09
2023-03-24T03:18:09.396Z,0.09
2023-03-24T03:19:09.962Z,0.09
2023-03-24T03:20:10.613Z,0.09
2023-03-24T03:21:11.227Z,0.09
2023-03-24T03:22:11.878Z,0.09
2023-03-24T03:22:20.529Z,0.09
2023-03-24T03:23:21.114Z,0.09
2023-03-24T03:24:21.792Z,0.09
2023-03-24T03:25:22.473Z,0.09
2023-03-24T03:26:24.204Z,0.09
2023-03-24T03:27:23.747Z,0.09
2023-03-24T03:28:24.294Z,0.09
2023-03-24T03:29:25.225Z,0.09
2023-03-24T03:30:25.883Z,0.09
2023-03-24T03:31:26.497Z,0.09
2023-03-24T03:32:27.111Z,0.09
2023-03-24T03:32:35.854Z,0.09
2023-03-24T03:33:36.331Z,0.09
2023-03-24T03:34:36.983Z,0.09
2023-03-24T03:35:37.658Z,0.09
2023-03-24T03:36:38.489Z,0.09
2023-03-24T03:37:39.147Z,0.09
2023-03-24T03:38:39.386Z,0.09
2023-03-24T03:39:40.013Z,0.09
2023-03-24T03:40:41.786Z,0.09
2023-03-24T03:41:41.505Z,0.09
2023-03-24T03:42:42.044Z,0.09
2023-03-24T03:42:51.191Z,0.09
2023-03-24T03:43:51.979Z,0.09
2023-03-24T03:44:52.578Z,0.09
2023-03-24T03:45:53.277Z,0.09
2023-03-24T03:46:54.015Z,0.09
2023-03-24T03:47:54.709Z,0.09
2023-03-24T03:48:55.291Z,0.09
2023-03-24T03:49:55.970Z,0.13
2023-03-24T03:51:10.208Z,0.13
2023-03-24T03:51:57.546Z,0.09
2023-03-24T03:52:58.284Z,0.13
2023-03-24T03:53:07.382Z,0.09
2023-03-24T03:54:08.146Z,0.09
2023-03-24T03:55:08.770Z,0.09
2023-03-24T03:56:09.554Z,0.09
2023-03-24T03:57:10.365Z,0.09
2023-03-24T03:58:10.858Z,0.09
2023-03-24T03:59:11.446Z,0.09
2023-03-24T04:00:13.109Z,0.09
2023-03-24T04:01:12.711Z,0.09
2023-03-24T04:02:13.477Z,0.09
2023-03-24T04:03:14.072Z,0.09
2023-03-24T04:03:23.940Z,0.09
2023-03-24T04:04:23.294Z,0.13
2023-03-24T04:05:23.969Z,0.09
2023-03-24T04:06:24.603Z,0.09
2023-03-24T04:07:25.269Z,0.09
2023-03-24T04:08:25.838Z,0.09
2023-03-24T04:09:26.504Z,0.09
2023-03-24T04:10:27.206Z,0.09
2023-03-24T04:11:27.937Z,0.09
2023-03-24T04:12:28.708Z,0.09
2023-03-24T04:13:29.479Z,0.09
2023-03-24T04:13:38.121Z,0.09
2023-03-24T04:14:38.468Z,0.09
2023-03-24T04:15:39.182Z,0.13
2023-03-24T04:16:39.917Z,0.09
2023-03-24T04:17:40.652Z,0.09
2023-03-24T04:18:41.220Z,0.09
2023-03-24T04:19:42.005Z,0.09
2023-03-24T04:20:42.605Z,0.09
2023-03-24T04:21:43.246Z,0.09
2023-03-24T04:22:43.901Z,0.09
2023-03-24T04:23:44.718Z,0.09
2023-03-24T04:24:45.279Z,0.13
2023-03-24T04:24:54.995Z,0.09
2023-03-24T04:25:54.907Z,0.09
2023-03-24T04:26:55.524Z,0.09
2023-03-24T04:27:56.293Z,0.09
2023-03-24T04:28:56.910Z,0.13
2023-03-24T04:29:57.468Z,0.09
2023-03-24T04:30:58.100Z,0.09
2023-03-24T04:31:58.850Z,0.09
2023-03-24T04:32:59.526Z,0.13
2023-03-24T04:34:00.118Z,0.13
2023-03-24T04:35:00.696Z,0.13
2023-03-24T04:36:01.407Z,0.09
2023-03-24T04:36:09.994Z,0.13
2023-03-24T04:37:10.597Z,0.13
2023-03-24T04:38:11.322Z,0.13
2023-03-24T04:39:11.942Z,0.13
2023-03-24T04:40:12.754Z,0.09
2023-03-24T04:41:14.687Z,0.09
2023-03-24T04:42:14.231Z,0.09
2023-03-24T04:43:16.037Z,0.13
2023-03-24T04:44:15.592Z,0.09
2023-03-24T04:45:16.575Z,0.13
2023-03-24T04:46:17.283Z,0.13
2023-03-24T04:46:25.993Z,0.13
2023-03-24T04:47:26.609Z,0.13
2023-03-24T04:48:27.228Z,0.13
2023-03-24T04:49:27.820Z,0.13
2023-03-24T04:50:28.467Z,0.13
2023-03-24T04:51:29.339Z,0.13
2023-03-24T04:52:30.022Z,0.13
2023-03-24T04:53:30.640Z,0.13
2023-03-24T04:54:31.316Z,0.13
2023-03-24T04:55:31.891Z,0.13
2023-03-24T04:56:32.644Z,0.13
2023-03-24T04:57:32.710Z,0.09
2023-03-24T04:57:42.877Z,0.09
2023-03-24T04:58:43.816Z,0.13
2023-03-24T04:59:44.711Z,0.13
2023-03-24T05:00:45.644Z,0.13
2023-03-24T05:01:46.426Z,0.13
2023-03-24T05:02:48.211Z,0.13
2023-03-24T05:03:47.830Z,0.13
2023-03-24T05:04:48.416Z,0.13
2023-03-24T05:05:49.040Z,0.13
2023-03-24T05:06:50.084Z,0.13
2023-03-24T05:07:50.761Z,0.13
2023-03-24T05:07:59.417Z,0.13
2023-03-24T05:08:59.990Z,0.16
2023-03-24T05:10:00.557Z,0.13
2023-03-24T05:11:01.270Z,0.13
2023-03-24T05:12:02.184Z,0.13
2023-03-24T05:13:02.727Z,0.16
2023-03-24T05:14:03.365Z,0.13
2023-03-24T05:15:03.961Z,0.13
2023-03-24T05:16:04.542Z,0.16
2023-03-24T05:17:05.201Z,0.16
2023-03-24T05:18:05.890Z,0.16
2023-03-24T05:19:06.404Z,0.16
2023-03-24T05:19:15.008Z,0.16
2023-03-24T05:20:15.600Z,0.16
2023-03-24T05:21:16.208Z,0.16
2023-03-24T05:22:16.941Z,0.16
2023-03-24T05:23:18.696Z,0.16
2023-03-24T05:24:19.342Z,0.16
2023-03-24T05:25:18.982Z,0.16
2023-03-24T05:26:19.651Z,0.16
2023-03-24T05:27:20.560Z,0.16
2023-03-24T05:28:21.479Z,0.16
2023-03-24T05:29:22.370Z,0.16
2023-03-24T05:29:34.455Z,0.23
2023-03-24T05:30:38.298Z,0.16
2023-03-24T05:31:36.100Z,0.16
2023-03-24T05:32:36.997Z,0.16
2023-03-24T05:33:37.813Z,0.23
2023-03-24T05:34:37.913Z,0.23
2023-03-24T05:35:38.075Z,0.23
2023-03-24T05:36:38.839Z,0.23
2023-03-24T05:37:39.628Z,0.23
2023-03-24T05:38:40.551Z,0.27
2023-03-24T05:39:41.370Z,0.27
2023-03-24T05:39:50.069Z,0.27
2023-03-24T05:40:50.881Z,0.27
2023-03-24T05:41:51.748Z,0.27
2023-03-24T05:42:51.949Z,0.27
2023-03-24T05:43:51.985Z,0.27
2023-03-24T05:44:52.834Z,0.23
2023-03-24T05:45:53.527Z,0.27
2023-03-24T05:46:54.091Z,0.27
2023-03-24T05:47:54.859Z,0.27
2023-03-24T05:48:55.667Z,0.27
2023-03-24T05:49:56.231Z,0.27
2023-03-24T05:50:05.385Z,0.27
2023-03-24T05:51:06.059Z,0.27
2023-03-24T05:52:07.050Z,0.27
2023-03-24T05:53:07.738Z,0.31
2023-03-24T05:54:08.583Z,0.27
2023-03-24T05:55:09.177Z,0.27
2023-03-24T05:56:09.878Z,0.31
2023-03-24T05:57:10.566Z,0.31
2023-03-24T05:58:11.093Z,0.31
2023-03-24T05:59:11.755Z,0.31
2023-03-24T06:00:12.332Z,0.31
2023-03-24T06:00:20.920Z,0.27
2023-03-24T06:01:21.454Z,0.31
2023-03-24T06:02:22.457Z,0.31
2023-03-24T06:03:23.594Z,0.31
2023-03-24T06:04:24.240Z,0.31
2023-03-24T06:05:24.298Z,0.31
2023-03-24T06:06:25.102Z,0.31
2023-03-24T06:07:25.700Z,0.31
2023-03-24T06:08:26.566Z,0.31
2023-03-24T06:09:26.623Z,0.31
2023-03-24T06:10:27.572Z,0.31
2023-03-24T06:11:28.337Z,0.31
2023-03-24T06:11:36.966Z,0.31
2023-03-24T06:12:37.605Z,0.31
2023-03-24T06:13:38.548Z,0.31
2023-03-24T06:14:39.175Z,0.31
2023-03-24T06:15:39.997Z,0.31
2023-03-24T06:16:40.528Z,0.34
2023-03-24T06:17:40.967Z,0.34
2023-03-24T06:18:41.706Z,0.34
2023-03-24T06:19:42.366Z,0.34
2023-03-24T06:20:43.035Z,0.34
2023-03-24T06:21:43.688Z,0.34
2023-03-24T06:21:52.905Z,0.34
2023-03-24T06:22:53.182Z,0.34
2023-03-24T06:23:53.811Z,0.34
2023-03-24T06:24:54.500Z,0.38
2023-03-24T06:25:55.186Z,0.38
2023-03-24T06:26:55.796Z,0.38
2023-03-24T06:27:56.431Z,0.34
2023-03-24T06:28:57.524Z,0.34
2023-03-24T06:29:57.107Z,0.34
2023-03-24T06:30:57.866Z,0.34
2023-03-24T06:31:58.531Z,0.34
2023-03-24T06:32:59.336Z,0.34
2023-03-24T06:33:08.557Z,0.34
2023-03-24T06:34:09.007Z,0.34
2023-03-24T06:35:09.745Z,0.34
2023-03-24T06:36:10.512Z,0.31
2023-03-24T06:37:10.534Z,0.34
2023-03-24T06:38:11.179Z,0.38
2023-03-24T06:39:11.808Z,0.38
2023-03-24T06:40:13.461Z,0.41
2023-03-24T06:41:13.065Z,0.38
2023-03-24T06:42:13.839Z,0.38
2023-03-24T06:43:15.510Z,0.38
2023-03-24T06:43:24.605Z,0.38
2023-03-24T06:44:26.208Z,0.41
2023-03-24T06:45:25.976Z,0.38
2023-03-24T06:46:26.081Z,0.41
2023-03-24T06:47:26.703Z,0.41
2023-03-24T06:48:27.361Z,0.45
2023-03-24T06:49:27.509Z,0.45
2023-03-24T06:50:28.140Z,0.45
2023-03-24T06:51:28.954Z,0.52
2023-03-24T06:52:29.580Z,0.45
2023-03-24T06:53:30.243Z,0.45
2023-03-24T06:54:30.874Z,0.45
2023-03-24T06:54:42.561Z,0.41
2023-03-24T06:55:43.378Z,0.41
2023-03-24T06:56:43.850Z,0.41
2023-03-24T06:57:44.585Z,0.41
2023-03-24T06:58:45.208Z,0.41
2023-03-24T06:59:45.756Z,0.41
2023-03-24T07:00:46.887Z,0.45
2023-03-24T07:01:47.555Z,0.38
2023-03-24T07:02:47.780Z,0.38
2023-03-24T07:03:47.853Z,0.38
2023-03-24T07:04:47.751Z,0.38
2023-03-24T07:05:48.476Z,0.38
2023-03-24T07:05:58.779Z,0.38
2023-03-24T07:07:19.183Z,0.41
2023-03-24T07:09:00.388Z,0.41
2023-03-24T07:10:00.986Z,0.45
2023-03-24T07:11:01.710Z,0.45
2023-03-24T07:12:02.349Z,0.45
2023-03-24T07:13:03.346Z,0.41
2023-03-24T07:14:03.854Z,0.41
2023-03-24T07:15:04.696Z,0.38
2023-03-24T07:16:04.773Z,0.38
2023-03-24T07:16:13.357Z,0.38
2023-03-24T07:17:14.006Z,0.41
2023-03-24T07:18:14.248Z,0.45
2023-03-24T07:19:14.842Z,0.45
2023-03-24T07:20:16.529Z,0.48
2023-03-24T07:21:16.243Z,0.48
2023-03-24T07:22:16.785Z,0.55
2023-03-24T07:23:17.439Z,0.66
2023-03-24T07:24:18.141Z,0.73
2023-03-24T07:25:19.185Z,0.66
2023-03-24T07:26:18.846Z,0.66
2023-03-24T07:26:27.521Z,0.59
2023-03-24T07:27:28.226Z,0.66
2023-03-24T07:28:28.923Z,0.70
2023-03-24T07:29:29.578Z,0.70
2023-03-24T07:30:39.710Z,0.70
2023-03-24T07:31:31.047Z,0.59
2023-03-24T07:32:31.703Z,0.66
2023-03-24T07:33:32.201Z,0.73
2023-03-24T07:34:32.867Z,0.70
2023-03-24T07:35:33.609Z,0.59
2023-03-24T07:36:34.361Z,0.45
2023-03-24T07:37:34.994Z,0.41
2023-03-24T07:37:46.244Z,0.41
2023-03-24T07:38:46.369Z,0.38
2023-03-24T07:39:46.511Z,0.34
2023-03-24T07:40:47.265Z,0.34
2023-03-24T07:41:47.631Z,0.34
2023-03-24T07:42:49.404Z,0.34
2023-03-24T07:43:49.014Z,0.34
2023-03-24T07:44:49.790Z,0.34
2023-03-24T07:45:50.492Z,0.31
2023-03-24T07:46:52.236Z,0.27
2023-03-24T07:47:52.076Z,0.27
2023-03-24T07:48:01.378Z,0.23
2023-03-24T07:49:11.870Z,0.16
2023-03-24T07:50:01.943Z,0.16
2023-03-24T07:51:02.703Z,0.16
2023-03-24T07:52:03.488Z,0.16
2023-03-24T07:53:05.136Z,0.16
2023-03-24T07:54:04.839Z,0.16
2023-03-24T07:55:05.510Z,0.16
2023-03-24T07:56:06.355Z,0.16
2023-03-24T07:57:08.952Z,0.16
2023-03-24T07:58:07.788Z,0.16
2023-03-24T07:58:20.834Z,0.23
2023-03-24T07:59:20.590Z,0.27
2023-03-24T08:00:21.217Z,0.23
2023-03-24T08:01:21.503Z,0.27
2023-03-24T08:02:22.583Z,0.27
2023-03-24T08:03:23.259Z,0.27
2023-03-24T08:04:24.480Z,0.27
2023-03-24T08:05:24.106Z,0.27
2023-03-24T08:06:24.620Z,0.31
2023-03-24T08:07:25.378Z,0.31
2023-03-24T08:08:26.028Z,0.31
2023-03-24T08:09:26.724Z,0.31
2023-03-24T08:09:36.104Z,0.27
2023-03-24T08:10:36.146Z,0.27
2023-03-24T08:11:36.675Z,0.27
2023-03-24T08:12:36.704Z,0.27
2023-03-24T08:13:37.602Z,0.27
2023-03-24T08:14:38.267Z,0.31
2023-03-24T08:15:38.815Z,0.27
2023-03-24T08:16:39.660Z,0.31
2023-03-24T08:17:40.381Z,0.27
2023-03-24T08:18:40.993Z,0.31
2023-03-24T08:19:56.065Z,0.31
2023-03-24T08:20:42.237Z,0.31
2023-03-24T08:20:50.903Z,0.31
2023-03-24T08:21:51.540Z,0.27
2023-03-24T08:22:52.302Z,0.31
2023-03-24T08:23:53.030Z,0.31
2023-03-24T08:24:53.747Z,0.31
2023-03-24T08:25:54.513Z,0.31
2023-03-24T08:26:55.391Z,0.27
2023-03-24T08:27:56.265Z,0.27
2023-03-24T08:28:56.926Z,0.31
2023-03-24T08:29:57.646Z,0.31
2023-03-24T08:30:58.544Z,0.31
2023-03-24T08:31:59.231Z,0.31
2023-03-24T08:32:08.389Z,0.31
2023-03-24T08:33:09.876Z,0.31
2023-03-24T08:34:09.974Z,0.31
2023-03-24T08:35:10.524Z,0.31
2023-03-24T08:36:11.292Z,0.34
2023-03-24T08:37:11.972Z,0.34
2023-03-24T08:38:12.774Z,0.34
2023-03-24T08:39:13.460Z,0.34
2023-03-24T08:40:14.098Z,0.31
2023-03-24T08:41:14.795Z,0.34
2023-03-24T08:42:15.409Z,0.34
2023-03-24T08:42:24.064Z,0.38
2023-03-24T08:43:24.103Z,0.38
2023-03-24T08:44:24.845Z,0.38
2023-03-24T08:45:25.636Z,0.41
2023-03-24T08:46:26.393Z,0.41
2023-03-24T08:47:27.131Z,0.38
2023-03-24T08:48:27.936Z,0.38
2023-03-24T08:49:29.673Z,0.41
2023-03-24T08:50:29.272Z,0.41
2023-03-24T08:51:29.717Z,0.41
2023-03-24T08:52:29.813Z,0.41
2023-03-24T08:52:41.479Z,0.38
2023-03-24T08:53:42.311Z,0.38
2023-03-24T08:54:43.044Z,0.38
2023-03-24T08:55:43.803Z,0.38
2023-03-24T08:56:44.465Z,0.38
2023-03-24T08:57:45.112Z,0.34
2023-03-24T08:58:45.825Z,0.38
2023-03-24T08:59:48.976Z,0.41
2023-03-24T09:00:47.079Z,0.41
2023-03-24T09:01:47.726Z,0.38
2023-03-24T09:02:48.369Z,0.41
2023-03-24T09:02:57.029Z,0.41
2023-03-24T09:03:57.643Z,0.41
2023-03-24T09:04:58.261Z,0.48
2023-03-24T09:05:59.039Z,0.38
2023-03-24T09:07:00.998Z,0.34
2023-03-24T09:08:00.402Z,0.45
2023-03-24T09:09:01.101Z,0.45
2023-03-24T09:10:01.747Z,0.41
2023-03-24T09:11:02.735Z,0.38
2023-03-24T09:12:03.617Z,0.41
2023-03-24T09:13:04.494Z,0.41
2023-03-24T09:13:15.076Z,0.41
2023-03-24T09:14:15.881Z,0.48
2023-03-24T09:15:16.499Z,0.66
2023-03-24T09:16:17.446Z,0.70
2023-03-24T09:17:18.087Z,0.66
2023-03-24T09:18:18.778Z,0.70
2023-03-24T09:19:18.803Z,0.70
2023-03-24T09:20:19.389Z,0.73
2023-03-24T09:21:20.348Z,0.73
2023-03-24T09:22:21.067Z,0.73
2023-03-24T09:23:21.726Z,0.73
2023-03-24T09:23:30.861Z,0.70
2023-03-24T09:24:30.999Z,0.73
2023-03-24T09:25:31.725Z,0.80
2023-03-24T09:26:32.377Z,0.77
2023-03-24T09:27:33.170Z,0.80
2023-03-24T09:28:33.828Z,0.77
2023-03-24T09:29:34.447Z,0.73
2023-03-24T09:30:35.325Z,0.77
2023-03-24T09:31:36.104Z,0.84
2023-03-24T09:32:36.833Z,0.84
2023-03-24T09:33:37.619Z,0.66
2023-03-24T09:34:38.559Z,0.70
2023-03-24T09:34:47.134Z,0.66
2023-03-24T09:35:47.908Z,0.66
2023-03-24T09:36:48.502Z,0.70
2023-03-24T09:37:49.124Z,0.70
2023-03-24T09:38:49.769Z,0.70
2023-03-24T09:39:50.495Z,0.73
2023-03-24T09:40:51.188Z,0.66
2023-03-24T09:41:51.811Z,0.52
2023-03-24T09:42:52.483Z,0.48
2023-03-24T09:43:53.295Z,0.59
2023-03-24T09:44:54.099Z,0.59
2023-03-24T09:45:56.747Z,0.77
2023-03-24T09:46:05.377Z,0.77
2023-03-24T09:47:05.467Z,0.80
2023-03-24T09:48:06.185Z,0.80
2023-03-24T09:49:06.657Z,0.88
2023-03-24T09:50:07.364Z,0.88
2023-03-24T09:51:08.139Z,0.80
2023-03-24T09:52:08.787Z,0.77
2023-03-24T09:53:09.598Z,0.80
2023-03-24T09:54:10.355Z,0.77
2023-03-24T09:55:10.998Z,0.73
2023-03-24T09:56:11.744Z,0.73
2023-03-24T09:56:20.491Z,0.73
2023-03-24T09:57:21.140Z,0.73
2023-03-24T09:58:21.817Z,0.70
2023-03-24T09:59:22.500Z,0.77
2023-03-24T10:00:23.283Z,0.77
2023-03-24T10:01:24.189Z,0.77
2023-03-24T10:02:24.867Z,0.80
2023-03-24T10:03:25.759Z,0.80
2023-03-24T10:04:26.474Z,0.80
2023-03-24T10:05:27.210Z,0.84
2023-03-24T10:06:28.008Z,0.98
2023-03-24T10:06:37.687Z,0.95
2023-03-24T10:07:38.644Z,1.09
2023-03-24T10:08:39.556Z,1.27
2023-03-24T10:09:39.711Z,1.37
2023-03-24T10:10:40.572Z,1.09
2023-03-24T10:11:41.169Z,0.95
2023-03-24T10:12:41.800Z,0.95
2023-03-24T10:13:42.529Z,0.98
2023-03-24T10:14:43.232Z,0.88
2023-03-24T10:15:44.005Z,1.84
2023-03-24T10:16:44.825Z,1.80
2023-03-24T10:16:55.967Z,1.77
2023-03-24T10:17:56.916Z,1.30
2023-03-24T10:18:57.819Z,0.98
2023-03-24T10:20:00.346Z,0.91
2023-03-24T10:20:59.076Z,1.20
2023-03-24T10:21:59.819Z,1.09
2023-03-24T10:23:00.429Z,0.98
2023-03-24T10:24:01.128Z,0.91
2023-03-24T10:25:01.852Z,0.77
2023-03-24T10:26:02.741Z,0.77
2023-03-24T10:27:03.499Z,0.80
2023-03-24T10:28:04.341Z,0.84
2023-03-24T10:28:12.967Z,0.80
2023-03-24T10:29:13.612Z,0.70
2023-03-24T10:30:14.371Z,0.66
2023-03-24T10:31:15.133Z,0.70
2023-03-24T10:32:15.763Z,0.70
2023-03-24T10:33:16.504Z,0.73
2023-03-24T10:34:17.247Z,1.09
2023-03-24T10:35:18.011Z,1.02
2023-03-24T10:36:18.948Z,1.12
2023-03-24T10:37:19.643Z,1.16
2023-03-24T10:38:20.266Z,0.91
2023-03-24T10:39:24.266Z,1.20
2023-03-24T10:40:21.819Z,1.41
2023-03-24T10:40:33.475Z,1.16
2023-03-24T10:41:31.686Z,1.09
2023-03-24T10:42:32.636Z,1.02
2023-03-24T10:43:33.378Z,1.09
2023-03-24T10:44:34.058Z,0.91
2023-03-24T10:45:34.916Z,0.84
2023-03-24T10:46:35.299Z,1.09
2023-03-24T10:47:36.264Z,1.30
2023-03-24T10:48:37.154Z,1.30
2023-03-24T10:49:37.901Z,1.73
2023-03-24T10:50:37.992Z,1.69
2023-03-24T10:51:38.929Z,0.95
2023-03-24T10:51:48.599Z,1.09
2023-03-24T10:52:48.346Z,1.52
2023-03-24T10:53:49.259Z,1.84
2023-03-24T10:54:49.975Z,1.37
2023-03-24T10:55:50.975Z,1.44
2023-03-24T10:56:51.497Z,0.77
2023-03-24T10:57:52.394Z,0.66
2023-03-24T10:58:53.116Z,0.70
2023-03-24T10:59:53.847Z,1.84
2023-03-24T11:00:54.717Z,0.66
2023-03-24T11:01:55.439Z,0.73
2023-03-24T11:02:56.304Z,0.88
2023-03-24T11:03:05.432Z,0.84
2023-03-24T11:04:06.030Z,0.80
2023-03-24T11:05:07.308Z,0.84
2023-03-24T11:06:06.976Z,0.91
2023-03-24T11:07:07.637Z,0.91
2023-03-24T11:08:09.406Z,1.77
2023-03-24T11:09:08.982Z,1.16
2023-03-24T11:10:09.655Z,0.84
2023-03-24T11:11:10.303Z,0.77
2023-03-24T11:12:11.132Z,0.95
2023-03-24T11:13:11.684Z,0.70
2023-03-24T11:13:20.319Z,0.77
2023-03-24T11:14:20.356Z,0.88
2023-03-24T11:15:22.901Z,0.91
2023-03-24T11:16:21.213Z,0.66
2023-03-24T11:17:22.107Z,0.77
2023-03-24T11:18:22.801Z,1.66
2023-03-24T11:19:23.638Z,1.34
2023-03-24T11:20:23.685Z,0.84
2023-03-24T11:21:24.220Z,0.73
2023-03-24T11:22:25.837Z,0.70
2023-03-24T11:23:25.808Z,0.66
2023-03-24T11:24:26.435Z,0.70
2023-03-24T11:25:27.244Z,0.77
2023-03-24T11:25:35.919Z,0.88
2023-03-24T11:26:36.003Z,0.91
2023-03-24T11:27:36.668Z,2.37
2023-03-24T11:28:37.409Z,1.37
2023-03-24T11:29:38.039Z,1.02
2023-03-24T11:30:41.776Z,2.26
2023-03-24T11:31:40.282Z,0.98
2023-03-24T11:32:40.036Z,2.37
2023-03-24T11:33:40.022Z,2.41
2023-03-24T11:34:40.745Z,1.12
2023-03-24T11:35:42.679Z,2.44
2023-03-24T11:36:42.545Z,2.30
2023-03-24T11:36:50.627Z,2.37
2023-03-24T11:37:51.210Z,2.30
2023-03-24T11:38:51.968Z,1.69
2023-03-24T11:39:52.675Z,0.84
2023-03-24T11:40:53.311Z,1.02
2023-03-24T11:41:53.973Z,2.30
2023-03-24T11:42:55.883Z,0.91
2023-03-24T11:43:55.679Z,0.91
2023-03-24T11:44:55.898Z,0.91
2023-03-24T11:45:56.665Z,0.88
2023-03-24T11:46:57.462Z,0.80
2023-03-24T11:47:58.362Z,0.80
2023-03-24T11:48:59.266Z,0.77
2023-03-24T11:49:59.499Z,0.95
2023-03-24T11:50:08.674Z,1.02
2023-03-24T11:51:09.350Z,2.48
2023-03-24T11:52:10.287Z,0.95
2023-03-24T11:53:11.001Z,0.91
2023-03-24T11:54:11.621Z,0.91
2023-03-24T11:55:12.395Z,2.09
2023-03-24T11:56:12.970Z,0.98
2023-03-24T11:57:14.719Z,0.98
2023-03-24T11:58:14.116Z,0.95
2023-03-24T11:59:14.891Z,0.95
2023-03-24T12:00:15.015Z,2.30
2023-03-24T12:01:15.136Z,2.37
2023-03-24T12:01:23.820Z,1.62
2023-03-24T12:02:24.863Z,1.30
2023-03-24T12:03:24.916Z,2.41
2023-03-24T12:04:25.575Z,1.98
2023-03-24T12:05:26.649Z,0.80
2023-03-24T12:06:26.984Z,2.12
2023-03-24T12:07:27.130Z,0.73
2023-03-24T12:08:27.012Z,0.66
2023-03-24T12:09:27.630Z,0.70
2023-03-24T12:10:28.396Z,0.84
2023-03-24T12:11:28.348Z,0.70
2023-03-24T12:12:29.017Z,0.70
2023-03-24T12:12:40.065Z,0.70
2023-03-24T12:13:40.525Z,0.70
2023-03-24T12:14:41.328Z,0.66
2023-03-24T12:15:41.900Z,0.59
2023-03-24T12:16:42.594Z,0.59
2023-03-24T12:17:43.282Z,0.48
2023-03-24T12:18:43.996Z,0.55
2023-03-24T12:19:44.800Z,0.77
2023-03-24T12:20:45.563Z,1.34
2023-03-24T12:21:46.257Z,0.73
2023-03-24T12:22:46.353Z,0.73
2023-03-24T12:22:55.450Z,0.73
2023-03-24T12:23:55.465Z,0.73
2023-03-24T12:24:56.113Z,0.80
2023-03-24T12:25:56.848Z,0.91
2023-03-24T12:26:57.415Z,2.12
2023-03-24T12:27:58.226Z,1.16
2023-03-24T12:28:58.688Z,1.73